Aurora, CO (80018)

3:50 PM MDT on August 31, 2015 (GMT -0600)
Thunderbird Estates | | Change Station
CLOSE
Current Station
Personal Weather Station
Location: Aurora, CO
Elevation: 5617 ft
Nearby Weather Stations

Elev 5617 ft 39.71 °N, 104.70 °W | Updated 16 minutes ago

Mostly Cloudy
Mostly Cloudy
85.5 °F
Feels Like 83 °F
N
3.7
Wind Variable Wind from South

Today
High -- | Low -- °F
--% Chance of Precip.
Yesterday
High -- | Low -- °F
Precip. -- in
6:25 AM 7:31 PM
Waning Gibbous, 93% visible
Pressure 29.84 in
Visibility 10.0 miles
Clouds Few 8000 ft
Mostly Cloudy 13000 ft
Mostly Cloudy 22000 ft
Heat Index 83 °F
Dew Point 50 °F
Humidity 30%
Rainfall 0.00 in
Snow Depth Not available.
UV 4 out of 12
Pollen 10.10 out of 12
Air Quality Not available.
Flu Activity Not available.
METAR KBKF 312058Z 00000KT 10SM FEW080 BKN130 BKN220 28/06 A3009 RMK AO2A SLP105 T02820060 57017
Pressure 29.84 in
Visibility 10.0 miles
Clouds Few 8000 ft
Mostly Cloudy 13000 ft
Mostly Cloudy 22000 ft
Heat Index 83 °F
Dew Point 50 °F
Humidity 30%
Rainfall 0.00 in
Snow Depth Not available.
UV 4 out of 12
Pollen 10.10 out of 12
Air Quality Not available.
Flu Activity Not available.
METAR KBKF 312058Z 00000KT 10SM FEW080 BKN130 BKN220 28/06 A3009 RMK AO2A SLP105 T02820060 57017
Nowcast | as of 3:08 PM MDT on August 31, 2015

Scattered showers and a few thunderstorms will continue to move across the Front Range foothills through late afternoon...and slowly spread over the urban corridor as well after 330 PM. Expect heavy rain and gusty winds to 40 mph with the stronger storms. Rainfall rates will be up to a third of an inch in 30 minutes with the stronger storms.

×

10-Day Weather Forecast

×

Almanac

Astronomy

Aug. 31, 2015 Rise Set
Actual Time
Civil Twilight
Nautical Twilight
Astronomical Twilight
Moon
Length of Visible Light
Length of Day
Tomorrow will be .
, % of the Moon is Illuminated

Today's Extremes

State Highs State Lows

Community

WunderPhotos

Upload Photos

1,851,377 photos uploaded!

WunderBlogs® & News

Nearby

Air Quality

  Air Quality AQ Index Pollutant
Not available.

Snow Depth

Station Depth Elevation

Earthquake Activity

City Distance Mag. Time & Date
Minimum magnitude displayed is 2.5.

Coastal Water Temperatures

Place Temperature

Stations

Nearby Weather Stations

Station Location Temp. Windchill Dew Point Humidity Wind Precip. Elev Updated Type